createdAt,value
2023-05-21T00:00:22.307Z,3.30
2023-05-21T00:02:49.493Z,8.85
2023-05-21T00:05:18.353Z,8.63
2023-05-21T00:07:47.168Z,6.20
2023-05-21T00:10:14.150Z,4.72
2023-05-21T00:12:41.985Z,3.45
2023-05-21T00:15:09.416Z,2.97
2023-05-21T00:17:36.969Z,3.80
2023-05-21T00:20:10.032Z,3.45
2023-05-21T00:22:36.935Z,3.60
2023-05-21T00:25:04.313Z,3.47
2023-05-21T00:27:31.152Z,3.17
2023-05-21T00:29:58.256Z,3.47
2023-05-21T00:32:25.638Z,3.85
2023-05-21T00:34:52.644Z,3.58
2023-05-21T00:37:20.708Z,3.78
2023-05-21T00:39:48.062Z,3.67
2023-05-21T00:42:18.050Z,3.20
2023-05-21T00:44:45.638Z,3.63
2023-05-21T00:47:13.917Z,4.15
2023-05-21T00:49:41.321Z,3.67
2023-05-21T00:52:47.549Z,3.58
2023-05-21T00:55:14.803Z,4.07
2023-05-21T00:57:42.827Z,3.70
2023-05-21T01:00:10.752Z,4.47
2023-05-21T01:02:38.359Z,3.92
2023-05-21T01:05:06.769Z,4.07
2023-05-21T01:07:41.412Z,3.67
2023-05-21T01:10:10.448Z,3.80
2023-05-21T01:12:39.724Z,3.55
2023-05-21T01:15:07.234Z,3.85
2023-05-21T01:17:34.485Z,3.47
2023-05-21T01:20:02.006Z,4.10
2023-05-21T01:22:34.384Z,4.68
2023-05-21T01:25:02.904Z,3.75
2023-05-21T01:27:29.959Z,4.32
2023-05-21T01:29:57.736Z,4.72
2023-05-21T01:32:36.672Z,3.72
2023-05-21T01:35:27.356Z,3.83
2023-05-21T01:38:17.454Z,4.00
2023-05-21T01:40:59.531Z,4.18
2023-05-21T01:43:29.293Z,4.10
2023-05-21T01:45:58.913Z,4.38
2023-05-21T01:48:30.448Z,3.90
2023-05-21T01:51:01.130Z,5.03
2023-05-21T01:53:28.105Z,4.32
2023-05-21T01:55:55.476Z,4.03
2023-05-21T01:58:22.957Z,4.15
2023-05-21T02:00:51.180Z,4.82
2023-05-21T02:03:19.576Z,4.05
2023-05-21T02:05:47.303Z,4.75
2023-05-21T02:08:15.261Z,4.57
2023-05-21T02:10:42.270Z,5.32
2023-05-21T02:13:09.088Z,4.70
2023-05-21T02:15:36.098Z,4.72
2023-05-21T02:18:03.562Z,4.32
2023-05-21T02:20:31.393Z,4.43
2023-05-21T02:22:58.261Z,4.53
2023-05-21T02:25:25.284Z,4.13
2023-05-21T02:27:56.718Z,4.30
2023-05-21T02:30:23.697Z,5.68
2023-05-21T02:32:50.779Z,4.40
2023-05-21T02:35:17.889Z,4.93
2023-05-21T02:37:44.943Z,4.88
2023-05-21T02:40:12.711Z,5.18
2023-05-21T02:42:41.216Z,4.82
2023-05-21T02:45:09.825Z,4.75
2023-05-21T02:47:36.884Z,4.78
2023-05-21T02:50:05.853Z,4.75
2023-05-21T02:52:32.601Z,4.78
2023-05-21T02:54:59.387Z,5.35
2023-05-21T02:57:26.146Z,4.47
2023-05-21T02:59:52.983Z,5.68
2023-05-21T03:02:19.782Z,5.15
2023-05-21T03:04:46.792Z,5.05
2023-05-21T03:07:14.618Z,5.35
2023-05-21T03:09:42.534Z,5.53
2023-05-21T03:12:10.731Z,4.97
2023-05-21T03:14:38.405Z,6.63
2023-05-21T03:17:08.146Z,6.25
2023-05-21T03:19:36.398Z,5.32
2023-05-21T03:22:04.010Z,5.78
2023-05-21T03:24:31.728Z,5.28
2023-05-21T03:26:59.315Z,6.05
2023-05-21T03:29:26.273Z,4.75
2023-05-21T03:31:53.999Z,5.97
2023-05-21T03:34:21.128Z,6.40
2023-05-21T03:36:48.204Z,6.30
2023-05-21T03:39:15.548Z,5.70
2023-05-21T03:41:42.789Z,6.13
2023-05-21T03:44:09.738Z,6.05
2023-05-21T03:46:36.787Z,5.72
2023-05-21T03:49:03.774Z,6.03
2023-05-21T03:51:31.841Z,5.97
2023-05-21T03:53:59.518Z,6.32
2023-05-21T03:56:26.378Z,6.05
2023-05-21T03:58:53.628Z,6.10
2023-05-21T04:01:20.488Z,7.50
2023-05-21T04:03:47.636Z,6.50
2023-05-21T04:06:15.500Z,5.97
2023-05-21T04:08:42.701Z,7.15
2023-05-21T04:11:09.569Z,6.03
2023-05-21T04:13:36.390Z,7.20
2023-05-21T04:16:03.272Z,6.50
2023-05-21T04:18:30.059Z,6.55
2023-05-21T04:20:57.013Z,6.28
2023-05-21T04:23:24.239Z,7.70
2023-05-21T04:25:51.307Z,7.13
2023-05-21T04:28:21.223Z,6.65
2023-05-21T04:30:49.923Z,7.10
2023-05-21T04:33:18.237Z,6.97
2023-05-21T04:35:47.407Z,6.72
2023-05-21T04:38:19.698Z,7.05
2023-05-21T04:40:53.520Z,7.60
2023-05-21T04:43:26.213Z,7.05
2023-05-21T04:45:57.107Z,7.30
2023-05-21T04:48:24.833Z,7.13
2023-05-21T04:50:53.509Z,7.55
2023-05-21T04:53:20.761Z,6.90
2023-05-21T04:55:48.005Z,7.55
2023-05-21T04:58:17.959Z,7.00
2023-05-21T05:00:50.634Z,8.40
2023-05-21T05:03:17.787Z,7.38
2023-05-21T05:05:44.716Z,7.47
2023-05-21T05:08:13.967Z,8.23
2023-05-21T05:10:42.751Z,8.30
2023-05-21T05:13:09.843Z,8.45
2023-05-21T05:15:37.014Z,8.38
2023-05-21T05:18:04.182Z,8.80
2023-05-21T05:20:31.173Z,8.93
2023-05-21T05:22:58.077Z,8.43
2023-05-21T05:25:24.969Z,9.05
2023-05-21T05:27:51.797Z,8.88
2023-05-21T05:30:18.613Z,9.35
2023-05-21T05:32:45.781Z,9.68
2023-05-21T05:35:12.996Z,10.15
2023-05-21T05:37:39.852Z,10.27
2023-05-21T05:40:08.175Z,9.98
2023-05-21T05:42:35.001Z,9.65
2023-05-21T05:45:01.869Z,9.88
2023-05-21T05:47:28.682Z,9.43
2023-05-21T05:49:55.710Z,9.32
2023-05-21T05:52:22.593Z,10.02
2023-05-21T05:54:49.412Z,9.48
2023-05-21T05:57:16.385Z,9.57
2023-05-21T05:59:43.244Z,9.02
2023-05-21T06:02:10.095Z,9.65
2023-05-21T06:04:36.970Z,9.38
2023-05-21T06:07:03.958Z,9.65
2023-05-21T06:09:30.961Z,8.70
2023-05-21T06:11:57.807Z,9.20
2023-05-21T06:14:24.650Z,9.15
2023-05-21T06:16:51.428Z,8.93
2023-05-21T06:19:18.990Z,9.65
2023-05-21T06:21:45.854Z,8.32
2023-05-21T06:24:12.649Z,8.95
2023-05-21T06:26:39.486Z,8.45
2023-05-21T06:29:06.318Z,9.07
2023-05-21T06:31:33.446Z,8.55
2023-05-21T06:34:01.094Z,8.43
2023-05-21T06:36:30.138Z,9.10
2023-05-21T06:38:57.239Z,8.90
2023-05-21T06:41:24.463Z,8.40
2023-05-21T06:43:51.434Z,9.18
2023-05-21T06:46:18.356Z,9.05
2023-05-21T06:48:46.351Z,8.50
2023-05-21T06:51:13.212Z,9.25
2023-05-21T06:53:40.106Z,8.55
2023-05-21T06:56:07.159Z,8.45
2023-05-21T06:58:34.075Z,8.30
2023-05-21T07:01:01.531Z,9.60
2023-05-21T07:03:28.539Z,8.70
2023-05-21T07:05:56.207Z,9.15
2023-05-21T07:08:23.249Z,8.45
2023-05-21T07:10:50.290Z,8.95
2023-05-21T07:13:17.147Z,9.00
2023-05-21T07:15:43.935Z,7.97
2023-05-21T07:18:11.729Z,8.52
2023-05-21T07:20:38.658Z,9.68
2023-05-21T07:23:05.492Z,8.80
2023-05-21T07:25:32.293Z,9.43
2023-05-21T07:27:59.108Z,9.30
2023-05-21T07:30:26.051Z,9.15
2023-05-21T07:32:52.919Z,9.05
2023-05-21T07:35:20.543Z,9.15
2023-05-21T07:37:48.136Z,9.05
2023-05-21T07:40:15.156Z,8.82
2023-05-21T07:42:42.021Z,9.07
2023-05-21T07:45:09.189Z,8.75
2023-05-21T07:47:36.142Z,9.38
2023-05-21T07:50:03.406Z,8.63
2023-05-21T07:52:30.549Z,9.20
2023-05-21T07:54:57.591Z,9.05
2023-05-21T07:57:24.633Z,9.50
2023-05-21T07:59:51.710Z,9.75
2023-05-21T08:02:18.756Z,9.20
2023-05-21T08:04:46.087Z,9.25
2023-05-21T08:07:13.779Z,9.13
2023-05-21T08:09:40.713Z,9.20
2023-05-21T08:12:07.976Z,9.32
2023-05-21T08:14:34.790Z,9.10
2023-05-21T08:17:01.697Z,8.65
2023-05-21T08:19:28.584Z,8.70
2023-05-21T08:21:55.726Z,9.88
2023-05-21T08:24:22.789Z,8.65
2023-05-21T08:26:50.656Z,9.20
2023-05-21T08:29:17.553Z,9.73
2023-05-21T08:31:44.387Z,8.98
2023-05-21T08:34:11.255Z,9.85
2023-05-21T08:36:38.386Z,8.80
2023-05-21T08:39:05.203Z,9.02
2023-05-21T08:41:36.269Z,8.95
2023-05-21T08:44:04.176Z,8.52
2023-05-21T08:46:36.508Z,8.90
2023-05-21T08:49:03.994Z,8.88
2023-05-21T08:51:31.471Z,9.43
2023-05-21T08:54:00.311Z,8.75
2023-05-21T08:56:27.675Z,9.32
2023-05-21T08:58:55.538Z,9.75
2023-05-21T09:01:24.787Z,10.25
2023-05-21T09:04:04.835Z,9.20
2023-05-21T09:06:36.276Z,8.63
2023-05-21T09:09:11.581Z,8.80
2023-05-21T09:11:38.408Z,8.90
2023-05-21T09:14:05.948Z,8.70
2023-05-21T09:16:32.902Z,8.98
2023-05-21T09:19:01.117Z,9.45
2023-05-21T09:21:31.700Z,9.15
2023-05-21T09:23:59.844Z,10.00
2023-05-21T09:26:27.074Z,9.52
2023-05-21T09:28:59.125Z,9.15
2023-05-21T09:31:26.986Z,9.80
2023-05-21T09:33:55.576Z,9.45
2023-05-21T09:36:22.798Z,9.55
2023-05-21T09:38:52.107Z,9.45
2023-05-21T09:41:22.168Z,9.32
2023-05-21T09:43:49.633Z,9.43
2023-05-21T09:46:20.598Z,8.32
2023-05-21T09:48:47.549Z,8.35
2023-05-21T09:51:16.084Z,8.95
2023-05-21T09:53:54.595Z,8.35
2023-05-21T09:56:24.610Z,8.38
2023-05-21T09:58:56.854Z,8.23
2023-05-21T10:01:27.467Z,7.80
2023-05-21T10:03:56.745Z,8.13
2023-05-21T10:06:32.196Z,8.57
2023-05-21T10:09:05.434Z,8.10
2023-05-21T10:11:33.708Z,8.45
2023-05-21T10:14:19.954Z,8.80
2023-05-21T10:16:48.130Z,8.00
2023-05-21T10:21:43.763Z,7.57
2023-05-21T10:24:11.249Z,8.32
2023-05-21T10:26:39.687Z,8.02
2023-05-21T10:29:08.971Z,8.15
2023-05-21T10:31:36.371Z,8.40
2023-05-21T10:34:06.296Z,9.18
2023-05-21T10:36:34.238Z,8.38
2023-05-21T10:39:01.976Z,7.88
2023-05-21T10:41:35.801Z,7.88
2023-05-21T10:44:09.181Z,8.70
2023-05-21T10:46:48.009Z,8.55
2023-05-21T10:49:30.425Z,9.73
2023-05-21T10:52:26.608Z,9.68
2023-05-21T10:54:54.375Z,8.80
2023-05-21T10:57:42.980Z,8.40
2023-05-21T11:00:13.483Z,8.48
2023-05-21T11:02:40.712Z,9.00
2023-05-21T11:05:08.023Z,8.98
2023-05-21T11:07:57.050Z,8.75
2023-05-21T11:10:45.278Z,9.20
2023-05-21T11:13:16.621Z,8.77
2023-05-21T11:15:58.908Z,8.32
2023-05-21T11:18:38.400Z,9.07
2023-05-21T11:21:12.420Z,9.18
2023-05-21T11:24:03.896Z,8.88
2023-05-21T11:26:52.145Z,9.55
2023-05-21T11:29:20.000Z,8.73
2023-05-21T11:31:48.465Z,8.07
2023-05-21T11:34:18.920Z,8.40
2023-05-21T11:36:49.770Z,8.30
2023-05-21T11:39:23.906Z,8.13
2023-05-21T11:42:04.703Z,7.57
2023-05-21T11:44:48.630Z,6.47
2023-05-21T11:47:20.249Z,7.00
2023-05-21T11:49:48.083Z,7.13
2023-05-21T11:52:15.235Z,6.85
2023-05-21T11:54:50.613Z,6.50
2023-05-21T11:57:21.315Z,6.20
2023-05-21T11:59:51.438Z,7.18
2023-05-21T12:02:22.481Z,5.93
2023-05-21T12:04:50.752Z,6.05
2023-05-21T12:07:20.816Z,6.97
2023-05-21T12:09:51.421Z,5.57
2023-05-21T12:12:19.926Z,6.13
2023-05-21T12:14:48.551Z,5.45
2023-05-21T12:17:20.241Z,5.32
2023-05-21T12:19:47.870Z,5.20
2023-05-21T12:22:17.501Z,5.40
2023-05-21T12:24:45.185Z,5.20
2023-05-21T12:27:13.512Z,5.03
2023-05-21T12:29:46.101Z,4.90
2023-05-21T12:32:14.640Z,5.55
2023-05-21T12:34:49.747Z,4.95
2023-05-21T12:37:24.365Z,5.57
2023-05-21T12:39:55.798Z,5.55
2023-05-21T12:42:35.324Z,5.13
2023-05-21T12:45:09.355Z,5.00
2023-05-21T12:47:36.751Z,5.28
2023-05-21T12:50:08.078Z,5.70
2023-05-21T12:52:34.929Z,5.22
2023-05-21T12:55:01.837Z,5.53
2023-05-21T12:57:37.089Z,5.25
2023-05-21T13:00:08.896Z,5.22
2023-05-21T13:02:44.152Z,5.60
2023-05-21T13:05:19.985Z,5.97
2023-05-21T13:07:47.897Z,5.35
2023-05-21T13:10:16.334Z,5.00
2023-05-21T13:12:44.643Z,5.18
2023-05-21T13:15:12.091Z,4.82
2023-05-21T13:17:39.238Z,5.30
2023-05-21T13:20:09.534Z,5.38
2023-05-21T13:22:47.785Z,4.95
2023-05-21T13:25:21.108Z,5.30
2023-05-21T13:27:49.446Z,7.47
2023-05-21T13:30:16.530Z,7.40
2023-05-21T13:32:43.939Z,6.40
2023-05-21T13:35:12.033Z,7.28
2023-05-21T13:37:40.455Z,7.43
2023-05-21T13:40:11.269Z,7.82
2023-05-21T13:42:38.673Z,7.80
2023-05-21T13:45:07.716Z,8.43
2023-05-21T13:47:36.253Z,7.38
2023-05-21T13:50:05.788Z,8.05
2023-05-21T13:52:32.768Z,8.05
2023-05-21T13:54:59.703Z,7.85
2023-05-21T13:57:27.149Z,8.10
2023-05-21T13:59:54.101Z,8.25
2023-05-21T14:02:21.011Z,8.77
2023-05-21T14:04:48.093Z,7.95
2023-05-21T14:07:14.928Z,7.97
2023-05-21T14:09:42.297Z,7.82
2023-05-21T14:12:09.460Z,8.57
2023-05-21T14:14:36.252Z,8.38
2023-05-21T14:17:03.131Z,8.77
2023-05-21T14:19:30.331Z,9.10
2023-05-21T14:21:57.282Z,8.77
2023-05-21T14:24:24.138Z,9.18
2023-05-21T14:26:50.952Z,8.55
2023-05-21T14:29:17.789Z,8.65
2023-05-21T14:31:46.764Z,8.85
2023-05-21T14:34:13.648Z,8.60
2023-05-21T14:36:40.522Z,8.18
2023-05-21T14:39:07.384Z,8.40
2023-05-21T14:41:34.188Z,8.45
2023-05-21T14:44:01.000Z,9.20
2023-05-21T14:46:28.064Z,7.95
2023-05-21T14:48:59.449Z,8.68
2023-05-21T14:51:26.227Z,8.38
2023-05-21T14:53:53.032Z,7.57
2023-05-21T14:56:23.725Z,9.43
2023-05-21T14:58:50.923Z,9.45
2023-05-21T15:01:18.477Z,9.15
2023-05-21T15:03:46.148Z,7.93
2023-05-21T15:06:13.512Z,9.35
2023-05-21T15:08:40.321Z,7.95
2023-05-21T15:11:10.272Z,9.05
2023-05-21T15:13:38.092Z,8.82
2023-05-21T15:16:05.316Z,9.07
2023-05-21T15:18:32.118Z,9.02
2023-05-21T15:20:59.236Z,8.75
2023-05-21T15:23:26.078Z,8.13
2023-05-21T15:25:53.003Z,8.75
2023-05-21T15:28:24.791Z,8.40
2023-05-21T15:30:52.146Z,8.38
2023-05-21T15:33:21.081Z,8.68
2023-05-21T15:35:48.132Z,8.05
2023-05-21T15:38:15.367Z,8.00
2023-05-21T15:40:42.669Z,7.70
2023-05-21T15:43:09.547Z,8.45
2023-05-21T15:45:36.777Z,8.35
2023-05-21T15:48:04.103Z,7.63
2023-05-21T15:50:30.928Z,7.95
2023-05-21T15:52:57.769Z,8.25
2023-05-21T15:55:24.652Z,8.68
2023-05-21T15:57:51.489Z,7.68
2023-05-21T16:00:18.571Z,7.75
2023-05-21T16:02:45.444Z,8.00
2023-05-21T16:05:12.353Z,7.30
2023-05-21T16:07:39.146Z,8.30
2023-05-21T16:10:10.640Z,8.15
2023-05-21T16:12:38.750Z,8.18
2023-05-21T16:15:06.267Z,9.00
2023-05-21T16:17:33.211Z,12.50
2023-05-21T16:20:00.347Z,9.32
2023-05-21T16:22:27.221Z,9.52
2023-05-21T16:24:55.696Z,9.38
2023-05-21T16:27:22.544Z,9.15
2023-05-21T16:29:49.515Z,8.55
2023-05-21T16:32:16.558Z,9.13
2023-05-21T16:34:43.413Z,8.60
2023-05-21T16:37:10.394Z,8.98
2023-05-21T16:39:37.427Z,9.35
2023-05-21T16:42:04.756Z,8.80
2023-05-21T16:44:32.213Z,8.93
2023-05-21T16:47:00.047Z,8.38
2023-05-21T16:49:27.642Z,8.23
2023-05-21T16:51:54.736Z,8.30
2023-05-21T16:54:21.712Z,7.57
2023-05-21T16:56:48.632Z,8.30
2023-05-21T16:59:16.307Z,8.60
2023-05-21T17:01:43.298Z,8.27
2023-05-21T17:04:10.982Z,9.20
2023-05-21T17:06:37.776Z,8.10
2023-05-21T17:09:04.751Z,8.38
2023-05-21T17:11:31.722Z,8.13
2023-05-21T17:13:58.682Z,8.73
2023-05-21T17:16:25.542Z,8.20
2023-05-21T17:18:52.752Z,8.20
2023-05-21T17:21:19.813Z,9.15
2023-05-21T17:23:46.801Z,7.57
2023-05-21T17:26:13.976Z,8.80
2023-05-21T17:28:40.942Z,7.82
2023-05-21T17:31:08.986Z,9.18
2023-05-21T17:33:37.375Z,8.85
2023-05-21T17:36:04.449Z,8.02
2023-05-21T17:38:31.392Z,8.50
2023-05-21T17:40:59.209Z,8.90
2023-05-21T17:43:28.993Z,7.90
2023-05-21T17:45:55.849Z,7.78
2023-05-21T17:48:22.774Z,8.23
2023-05-21T17:50:49.809Z,7.88
2023-05-21T17:53:19.921Z,8.00
2023-05-21T17:55:48.949Z,7.10
2023-05-21T17:58:15.955Z,7.90
2023-05-21T18:00:42.762Z,7.45
2023-05-21T18:03:09.638Z,7.38
2023-05-21T18:05:36.810Z,7.95
2023-05-21T18:08:04.753Z,8.25
2023-05-21T18:10:31.640Z,7.47
2023-05-21T18:12:58.548Z,7.95
2023-05-21T18:15:27.106Z,7.72
2023-05-21T18:17:55.294Z,7.63
2023-05-21T18:20:22.245Z,7.57
2023-05-21T18:22:49.176Z,7.22
2023-05-21T18:25:16.109Z,8.27
2023-05-21T18:27:42.994Z,6.93
2023-05-21T18:30:12.547Z,6.97
2023-05-21T18:32:39.593Z,7.13
2023-05-21T18:35:08.204Z,6.82
2023-05-21T18:37:35.071Z,7.13
2023-05-21T18:40:01.941Z,8.65
2023-05-21T18:42:28.727Z,7.03
2023-05-21T18:44:56.028Z,7.15
2023-05-21T18:47:22.999Z,6.68
2023-05-21T18:49:49.897Z,7.43
2023-05-21T18:52:16.750Z,7.30
2023-05-21T18:54:43.655Z,7.25
2023-05-21T18:57:10.637Z,6.82
2023-05-21T18:59:38.817Z,6.70
2023-05-21T19:02:05.754Z,7.47
2023-05-21T19:04:32.829Z,6.45
2023-05-21T19:06:59.784Z,6.53
2023-05-21T19:09:26.719Z,7.00
2023-05-21T19:11:53.612Z,6.55
2023-05-21T19:14:21.036Z,6.70
2023-05-21T19:16:47.946Z,6.38
2023-05-21T19:19:14.901Z,6.57
2023-05-21T19:21:41.778Z,6.50
2023-05-21T19:24:08.649Z,6.72
2023-05-21T19:26:35.561Z,6.18
2023-05-21T19:29:02.424Z,6.57
2023-05-21T19:31:29.409Z,6.45
2023-05-21T19:33:56.275Z,6.68
2023-05-21T19:36:24.097Z,6.68
2023-05-21T19:38:51.117Z,5.43
2023-05-21T19:41:18.707Z,5.93
2023-05-21T19:43:46.104Z,6.22
2023-05-21T19:46:14.286Z,7.88
2023-05-21T19:48:42.300Z,7.13
2023-05-21T19:51:09.183Z,6.30
2023-05-21T19:53:36.511Z,6.28
2023-05-21T19:56:03.317Z,6.07
2023-05-21T19:58:30.499Z,6.25
2023-05-21T20:01:00.560Z,6.50
2023-05-21T20:03:28.601Z,6.03
2023-05-21T20:05:55.495Z,6.18
2023-05-21T20:08:22.823Z,6.35
2023-05-21T20:10:51.992Z,6.50
2023-05-21T20:13:19.481Z,6.00
2023-05-21T20:15:47.905Z,6.15
2023-05-21T20:18:15.404Z,5.82
2023-05-21T20:20:42.833Z,6.15
2023-05-21T20:23:09.643Z,5.55
2023-05-21T20:25:36.547Z,5.70
2023-05-21T20:28:04.324Z,6.47
2023-05-21T20:30:51.379Z,5.75
2023-05-21T20:33:18.656Z,5.90
2023-05-21T20:35:45.596Z,6.55
2023-05-21T20:38:12.724Z,5.68
2023-05-21T20:40:39.676Z,5.93
2023-05-21T20:43:06.924Z,5.85
2023-05-21T20:45:35.726Z,5.72
2023-05-21T20:48:03.416Z,6.20
2023-05-21T20:50:30.299Z,5.80
2023-05-21T20:52:58.095Z,5.90
2023-05-21T20:55:25.454Z,6.00
2023-05-21T20:57:52.579Z,6.22
2023-05-21T21:00:19.718Z,6.07
2023-05-21T21:02:46.595Z,6.15
2023-05-21T21:05:13.530Z,5.95
2023-05-21T21:07:40.390Z,6.28
2023-05-21T21:10:07.755Z,5.95
2023-05-21T21:12:34.607Z,6.53
2023-05-21T21:15:01.395Z,6.55
2023-05-21T21:17:28.255Z,6.78
2023-05-21T21:19:55.482Z,6.38
2023-05-21T21:22:22.464Z,5.97
2023-05-21T21:24:49.271Z,6.07
2023-05-21T21:27:16.234Z,6.03
2023-05-21T21:29:43.071Z,6.20
2023-05-21T21:32:09.860Z,6.45
2023-05-21T21:34:36.699Z,5.97
2023-05-21T21:37:03.943Z,6.07
2023-05-21T21:39:30.989Z,6.30
2023-05-21T21:41:58.091Z,5.72
2023-05-21T21:44:24.907Z,5.32
2023-05-21T21:46:51.787Z,6.72
2023-05-21T21:49:18.594Z,6.85
2023-05-21T21:51:45.752Z,6.53
2023-05-21T21:54:12.716Z,6.38
2023-05-21T21:56:39.630Z,6.50
2023-05-21T21:59:06.456Z,6.10
2023-05-21T22:01:33.594Z,6.32
2023-05-21T22:04:00.532Z,6.45
2023-05-21T22:06:28.547Z,6.35
2023-05-21T22:08:55.542Z,7.32
2023-05-21T22:11:22.667Z,7.07
2023-05-21T22:13:49.584Z,6.40
2023-05-21T22:16:16.505Z,6.75
2023-05-21T22:18:43.717Z,6.50
2023-05-21T22:21:14.444Z,6.68
2023-05-21T22:23:41.584Z,6.07
2023-05-21T22:26:09.723Z,6.65
2023-05-21T22:28:36.725Z,6.78
2023-05-21T22:31:03.595Z,7.28
2023-05-21T22:33:30.790Z,6.20
2023-05-21T22:35:58.121Z,6.68
2023-05-21T22:38:25.658Z,6.63
2023-05-21T22:40:52.483Z,6.40
2023-05-21T22:43:19.373Z,7.43
2023-05-21T22:45:46.356Z,6.43
2023-05-21T22:48:14.229Z,6.90
2023-05-21T22:50:41.290Z,7.72
2023-05-21T22:53:08.464Z,8.23
2023-05-21T22:55:35.328Z,7.18
2023-05-21T22:58:02.642Z,7.03
2023-05-21T23:00:29.600Z,7.20
2023-05-21T23:02:56.599Z,6.80
2023-05-21T23:05:23.555Z,6.40
2023-05-21T23:07:50.452Z,7.18
2023-05-21T23:10:17.391Z,6.88
2023-05-21T23:12:44.184Z,6.50
2023-05-21T23:15:11.433Z,6.25
2023-05-21T23:17:38.642Z,7.30
2023-05-21T23:20:08.149Z,6.82
2023-05-21T23:22:35.610Z,6.60
2023-05-21T23:25:02.911Z,6.68
2023-05-21T23:27:29.788Z,6.53
2023-05-21T23:29:56.712Z,7.07
2023-05-21T23:32:23.924Z,6.78
2023-05-21T23:34:50.975Z,7.28
2023-05-21T23:37:17.907Z,7.13
2023-05-21T23:39:48.232Z,7.60
2023-05-21T23:42:16.317Z,7.28
2023-05-21T23:44:43.241Z,7.22
2023-05-21T23:47:10.226Z,6.72
2023-05-21T23:49:37.151Z,6.50
2023-05-21T23:52:05.849Z,6.80
2023-05-21T23:54:32.657Z,7.45
2023-05-21T23:56:59.427Z,8.68
2023-05-21T23:59:26.242Z,8.57
